Johnsbury, Vermont
Current Conditions -  °F | °C
As of 12:15 AM on Saturday 25 Oct 2014 (Local Time) from KCDA Reporting Station
Scattered Clouds Scattered Clouds  
Wind Chill: 35°   Ceiling: Unl
Heat Index: 39°   Visibility: 10mi
Dew Point: 34°   Wind: 5mph
Humidity: 82%   Direction: 20°NNE
Pressure: 29.8"   Gusts: NA
Location:  44.4161°N, 71.9767°W
Report Text: KCDA 250415Z AUTO 02004KT 10SM SCT110 04/01 A2980 RMK AO2 T00380010
Loading
Personal Weather Stations






























Interactive Weather Map
Tropical Storm Tracking
New forecast layout! Learn more

10-Day Weather Forecast

Advertisements
Track Severe Weather on mobile